Yellowstone National Park, Wyoming
Current Conditions -  °F | °C
As of 12:56 AM on Thursday 27 Nov 2014 (Local Time) from KDIJ Reporting Station
Clear Clear  
Wind Chill:   Ceiling: Unl
Heat Index:   Visibility: 10mi
Dew Point: -2°   Wind: 12mph
Humidity: 65%   Direction: 150°SSE
Pressure: 30.29"   Gusts: NA
Location:  44.5747°N, 110.518°W
Report Text: KDIJ 270756Z AUTO 15010KT 10SM CLR 04/M02 A3029 RMK AO2 T00441016 SLP230
Loading
Personal Weather Stations






























Interactive Weather Map New forecast layout! Learn more

10-Day Weather Forecast

Advertisements
Track Severe Weather on mobile